Time;durP1;ratioP1;P1;durP2;ratioP2;P2;SDS_P1;SDS_P2;PMS_P1;PMS_P2;Temp;Humidity;BMP_temperature;BMP_pressure;BME280_temperature;BME280_humidity;BME280_pressure;Samples;Min_cycle;Max_cycle;Signal;HPM_P1;HPM_P2
2021/12/10 00:03:19;;;;;;;60.10;24.02;;;;;;;-1.15;100.00;97838.58;4002289;87;43344;-79
2021/12/10 00:09:26;;;;;;;66.87;24.15;;;;;;;-1.15;100.00;97809.07;4068958;86;43736;-79
2021/12/10 00:15:31;;;;;;;68.42;25.12;;;;;;;-1.06;100.00;97816.88;4098235;86;43322;-78
2021/12/10 00:21:32;;;;;;;73.25;25.68;;;;;;;-1.18;100.00;97813.89;4067310;86;43589;-78
2021/12/10 00:27:34;;;;;;;66.37;23.22;;;;;;;-1.08;100.00;97810.45;4060923;87;43839;-78
2021/12/10 00:33:43;;;;;;;64.42;23.12;;;;;;;-1.09;100.00;97811.47;4076664;87;28902;-81
2021/12/10 00:39:52;;;;;;;60.15;23.32;;;;;;;-1.04;100.00;97799.03;4072907;87;28487;-79
2021/12/10 00:45:54;;;;;;;63.90;23.87;;;;;;;-1.07;100.00;97797.58;4084913;87;28528;-80
2021/12/10 00:51:55;;;;;;;64.25;23.22;;;;;;;-0.96;100.00;97784.41;4085293;87;28490;-81
2021/12/10 00:57:59;;;;;;;67.50;24.72;;;;;;;-1.03;100.00;97778.23;4051604;86;28540;-82
2021/12/10 01:04:08;;;;;;;69.03;25.92;;;;;;;-1.27;100.00;97759.93;4077160;87;43779;-80
2021/12/10 01:10:20;;;;;;;72.70;24.15;;;;;;;-1.07;100.00;97757.20;4012761;87;28568;-81
2021/12/10 01:28:59;;;;;;;70.60;24.92;;;;;;;-0.96;100.00;97779.13;4016378;89;28466;-80
2021/12/10 01:35:01;;;;;;;73.17;26.33;;;;;;;-0.94;100.00;97774.48;4015086;89;28509;-80
2021/12/10 01:41:07;;;;;;;74.32;25.17;;;;;;;-0.90;100.00;97786.28;4016679;89;43982;-80
2021/12/10 01:47:10;;;;;;;64.30;24.98;;;;;;;-0.86;100.00;97782.77;4015625;87;28549;-81
2021/12/10 01:53:15;;;;;;;67.08;25.82;;;;;;;-0.93;100.00;97784.55;4069119;87;28502;-81
2021/12/10 01:59:19;;;;;;;65.42;23.83;;;;;;;-0.99;100.00;97781.64;4029431;88;28506;-83
2021/12/10 02:05:20;;;;;;;65.15;23.95;;;;;;;-0.88;100.00;97790.06;4032184;88;43792;-79
2021/12/10 02:11:22;;;;;;;67.25;24.43;;;;;;;-0.88;100.00;97797.98;4061314;87;28599;-80
2021/12/10 02:17:27;;;;;;;69.15;25.97;;;;;;;-0.90;100.00;97792.88;4061874;88;28476;-79
2021/12/10 02:23:36;;;;;;;75.77;25.97;;;;;;;-0.89;100.00;97783.16;4063654;88;28546;-81
2021/12/10 02:29:40;;;;;;;66.62;24.25;;;;;;;-0.88;100.00;97771.09;4063557;88;43744;-80
2021/12/10 02:35:43;;;;;;;65.22;24.92;;;;;;;-0.81;100.00;97760.60;4063266;87;28499;-82
2021/12/10 02:41:46;;;;;;;60.20;22.60;;;;;;;-1.05;100.00;97745.95;4063478;88;44411;-81
2021/12/10 02:47:49;;;;;;;67.65;24.27;;;;;;;-1.02;100.00;97745.57;4049892;88;28490;-82
2021/12/10 02:53:50;;;;;;;67.30;24.05;;;;;;;-1.05;100.00;97738.84;4067667;88;43717;-80
2021/12/10 02:59:51;;;;;;;64.00;24.50;;;;;;;-1.03;100.00;97735.54;4067982;87;43748;-81
2021/12/10 03:05:53;;;;;;;63.45;23.80;;;;;;;-0.90;100.00;97742.73;4068828;87;28465;-81
2021/12/10 03:11:58;;;;;;;62.35;23.12;;;;;;;-0.99;100.00;97737.27;4068560;87;28555;-83
2021/12/10 03:18:05;;;;;;;60.98;22.50;;;;;;;-0.98;100.00;97736.30;4068739;87;28461;-83
2021/12/10 03:24:06;;;;;;;60.08;24.32;;;;;;;-0.95;100.00;97748.27;3996684;88;44066;-81
2021/12/10 03:30:11;;;;;;;63.20;23.80;;;;;;;-1.05;100.00;97748.59;4063543;88;43717;-82
2021/12/10 03:36:15;;;;;;;66.77;25.90;;;;;;;-0.92;100.00;97753.19;4063486;88;28512;-83
2021/12/10 03:42:19;;;;;;;65.37;24.57;;;;;;;-0.93;100.00;97747.08;4063140;88;28533;-81
2021/12/10 03:48:29;;;;;;;62.03;24.15;;;;;;;-0.85;100.00;97758.01;4028106;88;43644;-80
2021/12/10 03:54:30;;;;;;;69.00;25.32;;;;;;;-0.77;100.00;97757.09;3998551;88;28575;-79
2021/12/10 04:00:37;;;;;;;65.12;23.67;;;;;;;-0.80;100.00;97755.63;3997965;89;28549;-82
2021/12/10 04:06:39;;;;;;;66.67;24.02;;;;;;;-0.82;100.00;97767.37;3998548;87;28538;-83
2021/12/10 04:12:40;;;;;;;62.53;23.52;;;;;;;-0.87;100.00;97769.27;3998369;89;43608;-81
2021/12/10 04:18:41;;;;;;;62.62;23.38;;;;;;;-0.85;100.00;97762.80;3998044;89;28572;-80
2021/12/10 04:24:43;;;;;;;67.00;23.22;;;;;;;-0.81;100.00;97768.52;3998464;89;28483;-81
2021/12/10 04:30:46;;;;;;;60.08;22.40;;;;;;;-0.81;100.00;97776.44;3997764;89;44073;-82
2021/12/10 04:36:49;;;;;;;68.37;25.12;;;;;;;-0.82;100.00;97766.89;3994530;89;28491;-81
2021/12/10 04:42:52;;;;;;;66.70;25.08;;;;;;;-0.85;100.00;97765.44;4040220;88;28468;-81
2021/12/10 04:48:58;;;;;;;67.45;24.65;;;;;;;-0.84;100.00;97768.87;4059872;88;28474;-81
2021/12/10 04:55:03;;;;;;;67.95;25.00;;;;;;;-0.79;100.00;97792.06;4059752;88;28517;-80
2021/12/10 05:01:05;;;;;;;68.83;25.32;;;;;;;-0.77;100.00;97786.12;4060817;88;29117;-81
2021/12/10 05:07:06;;;;;;;70.52;26.20;;;;;;;-0.76;100.00;97793.03;4061586;88;43914;-81
2021/12/10 05:13:08;;;;;;;68.05;25.02;;;;;;;-0.76;100.00;97791.19;4062627;88;28477;-82
2021/12/10 05:19:12;;;;;;;70.12;27.35;;;;;;;-0.70;100.00;97798.85;4060331;88;28520;-80
2021/12/10 05:25:15;;;;;;;76.42;28.55;;;;;;;-0.72;100.00;97798.23;4059627;88;28474;-81
2021/12/10 05:31:17;;;;;;;71.97;28.35;;;;;;;-0.76;100.00;97777.98;4059531;88;44068;-81
2021/12/10 05:37:18;;;;;;;75.12;26.68;;;;;;;-0.63;100.00;97773.34;4059846;88;43551;-79
2021/12/10 05:43:21;;;;;;;76.20;28.90;;;;;;;-0.67;100.00;97764.67;4058695;88;28508;-80
2021/12/10 05:49:22;;;;;;;72.60;26.23;;;;;;;-0.67;100.00;97762.03;4057991;88;28524;-81
2021/12/10 05:55:25;;;;;;;67.70;27.02;;;;;;;-0.77;100.00;97768.44;4057267;87;28484;-81
2021/12/10 06:01:28;;;;;;;70.00;26.73;;;;;;;-0.74;100.00;97771.21;4059145;86;28526;-80
2021/12/10 06:07:29;;;;;;;70.47;27.52;;;;;;;-0.78;100.00;97772.09;4081790;86;28519;-81
2021/12/10 06:13:30;;;;;;;70.80;27.40;;;;;;;-0.73;100.00;97765.76;4103590;86;28472;-82
2021/12/10 06:19:32;;;;;;;69.03;26.30;;;;;;;-0.79;100.00;97779.70;4026813;86;28529;-83
2021/12/10 06:25:34;;;;;;;75.17;28.23;;;;;;;-0.76;100.00;97786.42;4035747;88;44107;-84
2021/12/10 06:31:37;;;;;;;71.85;27.90;;;;;;;-0.72;100.00;97800.88;4083356;86;28512;-82
2021/12/10 06:37:41;;;;;;;74.25;28.07;;;;;;;-0.72;100.00;97806.98;4080718;85;28546;-82
2021/12/10 06:43:42;;;;;;;71.42;27.58;;;;;;;-0.58;100.00;97794.69;4061047;86;28508;-80
2021/12/10 06:49:44;;;;;;;71.20;28.00;;;;;;;-0.58;100.00;97794.69;4077002;86;28467;-77
2021/12/10 06:55:46;;;;;;;74.30;28.07;;;;;;;-0.60;100.00;97795.39;4070724;86;28520;-79
2021/12/10 07:01:49;;;;;;;74.20;27.13;;;;;;;-0.57;100.00;97789.75;4075853;86;28539;-78
2021/12/10 07:07:52;;;;;;;75.47;29.90;;;;;;;-0.48;100.00;97788.27;4052629;86;28574;-76
2021/12/10 07:13:57;;;;;;;72.10;29.30;;;;;;;-0.46;100.00;97794.20;4106196;86;28604;-75
2021/12/10 07:19:59;;;;;;;;;;;;;;;-0.32;100.00;97798.58;4103841;86;28542;-75
2021/12/10 07:26:00;;;;;;;74.40;30.30;;;;;;;-0.33;100.00;97790.83;4115410;86;20187;-83
2021/12/10 07:32:03;;;;;;;82.55;31.55;;;;;;;-0.22;100.00;97794.79;4076246;86;28509;-83
2021/12/10 07:38:06;;;;;;;87.08;33.25;;;;;;;-0.17;100.00;97795.02;4067943;87;28519;-79
2021/12/10 07:44:12;;;;;;;83.07;31.37;;;;;;;-0.10;100.00;97801.69;4079882;86;28510;-80
2021/12/10 07:50:18;;;;;;;83.85;31.75;;;;;;;-0.01;100.00;97815.04;4095785;85;28478;-80
2021/12/10 07:56:20;;;;;;;85.20;33.55;;;;;;;0.24;100.00;97819.89;4116773;86;28566;-80
2021/12/10 08:02:22;;;;;;;86.20;32.40;;;;;;;0.31;100.00;97816.77;4044402;86;28502;-87
2021/12/10 08:08:25;;;;;;;84.60;33.60;;;;;;;0.35;100.00;97812.73;4028167;86;28492;-79
2021/12/10 08:14:27;;;;;;;71.02;29.15;;;;;;;0.41;100.00;97816.42;4063449;86;28550;-80
2021/12/10 08:20:30;;;;;;;82.02;31.77;;;;;;;0.58;100.00;97822.72;4037567;86;28499;-80
2021/12/10 08:26:32;;;;;;;75.50;30.17;;;;;;;0.80;100.00;97828.70;4050019;86;28519;-81
2021/12/10 08:32:33;;;;;;;82.92;32.05;;;;;;;0.99;100.00;97824.51;4046741;86;28539;-80
2021/12/10 08:38:37;;;;;;;100.80;33.60;;;;;;;0.75;100.00;97837.75;4048346;86;28482;-79
2021/12/10 08:44:39;;;;;;;82.57;31.37;;;;;;;0.80;100.00;97844.08;4054618;86;28557;-78
2021/12/10 08:50:42;;;;;;;80.57;31.40;;;;;;;0.76;100.00;97850.77;4017582;88;28494;-79
2021/12/10 08:56:47;;;;;;;88.20;32.80;;;;;;;1.01;100.00;97834.38;4044005;86;28619;-78
2021/12/10 09:02:54;;;;;;;82.45;33.15;;;;;;;1.09;100.00;97839.50;4100947;86;28487;-79
2021/12/10 09:08:56;;;;;;;70.83;29.37;;;;;;;1.24;100.00;97828.72;4089695;86;28468;-83
2021/12/10 09:15:04;;;;;;;71.72;30.50;;;;;;;1.15;100.00;97834.41;4059561;85;28490;-83
2021/12/10 09:21:03;;;;;;;73.47;30.57;;;;;;;1.32;100.00;97837.50;4075138;86;28509;-83
2021/12/10 09:27:05;;;;;;;72.35;31.60;;;;;;;1.43;100.00;97825.52;4075955;85;28491;-82
2021/12/10 09:33:06;;;;;;;77.90;31.68;;;;;;;1.49;100.00;97817.57;4070210;86;28458;-81
2021/12/10 09:39:13;;;;;;;126.92;36.80;;;;;;;1.34;100.00;97824.87;4048786;86;28505;-81
2021/12/10 09:45:18;;;;;;;85.53;33.50;;;;;;;1.43;100.00;97806.97;4075188;86;28531;-80
2021/12/10 09:51:28;;;;;;;75.43;31.90;;;;;;;1.63;100.00;97805.16;4067529;86;28465;-81
2021/12/10 09:57:36;;;;;;;71.30;29.72;;;;;;;1.72;100.00;97799.13;4032044;86;28543;-80
2021/12/10 10:03:44;;;;;;;77.37;31.77;;;;;;;1.75;100.00;97804.54;4090010;86;28525;-80
2021/12/10 10:09:50;;;;;;;82.20;33.13;;;;;;;2.11;100.00;97795.84;4038682;86;28506;-81
2021/12/10 10:15:56;;;;;;;75.25;32.85;;;;;;;2.17;100.00;97788.36;4055943;86;28481;-82
2021/12/10 10:21:59;;;;;;;80.92;32.98;;;;;;;2.13;100.00;97791.14;4039877;86;28545;-80
2021/12/10 10:28:03;;;;;;;82.50;33.63;;;;;;;2.21;100.00;97798.87;4075123;86;28535;-80
2021/12/10 10:34:11;;;;;;;76.17;31.62;;;;;;;2.19;100.00;97791.64;4060524;86;28494;-81
2021/12/10 10:40:13;;;;;;;81.82;33.23;;;;;;;2.20;100.00;97778.69;4061478;87;28495;-85
2021/12/10 10:46:16;;;;;;;79.50;33.55;;;;;;;2.33;100.00;97774.66;4062546;86;28485;-81
2021/12/10 10:52:31;;;;;;;84.83;34.45;;;;;;;2.60;100.00;97779.06;4060575;86;28587;-82
2021/12/10 10:58:38;;;;;;;85.83;34.83;;;;;;;2.50;100.00;97790.93;4056917;86;28552;-83
2021/12/10 11:04:45;;;;;;;79.60;33.40;;;;;;;2.65;100.00;97786.69;4032179;86;28499;-83
2021/12/10 11:10:46;;;;;;;;;;;;;;;2.79;100.00;97787.95;4052131;86;28620;-81
2021/12/10 11:16:53;;;;;;;80.75;34.95;;;;;;;2.75;100.00;97781.45;4053610;86;20197;-81
2021/12/10 11:23:00;;;;;;;78.55;32.70;;;;;;;2.86;100.00;97776.80;4053192;86;28478;-82
2021/12/10 11:29:02;;;;;;;79.40;32.17;;;;;;;2.98;100.00;97786.74;4053215;86;28540;-82
2021/12/10 11:35:21;;;;;;;97.30;35.35;;;;;;;3.04;100.00;97778.73;4056294;86;28521;-81
2021/12/10 11:41:27;;;;;;;79.97;35.13;;;;;;;3.04;100.00;97784.05;4048421;86;28565;-80
2021/12/10 11:47:39;;;;;;;104.70;35.98;;;;;;;3.15;100.00;97789.70;4057857;86;28481;-82
2021/12/10 11:53:51;;;;;;;81.15;33.88;;;;;;;3.15;100.00;97788.38;4058738;86;28557;-81
2021/12/10 12:00:05;;;;;;;75.20;32.85;;;;;;;3.17;100.00;97790.30;4051898;86;29166;-86
2021/12/10 12:06:08;;;;;;;71.95;30.97;;;;;;;3.17;100.00;97783.16;4057022;86;28594;-81
2021/12/10 12:12:15;;;;;;;79.55;31.40;;;;;;;3.12;100.00;97789.61;4053160;86;28491;-82
2021/12/10 12:18:25;;;;;;;87.25;36.50;;;;;;;3.09;100.00;97778.62;4044002;86;28498;-84
2021/12/10 12:30:55;;;;;;;104.40;44.42;;;;;;;2.91;100.00;97761.03;4053563;86;28514;-83
2021/12/10 12:37:01;;;;;;;96.78;42.38;;;;;;;2.81;100.00;97762.00;4053823;86;28533;-83
2021/12/10 12:43:06;;;;;;;95.00;40.85;;;;;;;2.82;100.00;97762.33;4052667;86;28587;-83
2021/12/10 12:49:06;;;;;;;95.50;40.63;;;;;;;2.78;100.00;97761.94;4047308;86;28451;-86
2021/12/10 12:55:33;;;;;;;102.38;41.63;;;;;;;2.69;100.00;97774.31;4050396;86;28541;-83
2021/12/10 13:01:45;;;;;;;101.62;40.98;;;;;;;2.63;100.00;97762.20;4033165;87;28538;-81
2021/12/10 13:07:47;;;;;;;98.50;41.05;;;;;;;2.41;100.00;97764.86;4031227;88;28500;-85
2021/12/10 13:14:00;;;;;;;99.90;41.28;;;;;;;2.47;100.00;97758.19;4064279;88;28476;-84
2021/12/10 13:20:09;;;;;;;95.28;39.80;;;;;;;2.32;100.00;97762.92;4039306;88;28535;-83
2021/12/10 13:26:11;;;;;;;89.10;37.30;;;;;;;2.17;100.00;97759.19;4049575;88;28470;-84
2021/12/10 13:32:13;;;;;;;86.40;35.00;;;;;;;2.26;100.00;97760.59;4054757;88;28511;-83
2021/12/10 13:38:17;;;;;;;94.70;39.70;;;;;;;2.28;100.00;97771.01;4049908;86;28483;-83
2021/12/10 13:44:33;;;;;;;93.35;39.10;;;;;;;2.21;100.00;97774.48;4053678;86;28583;-82
2021/12/10 13:50:46;;;;;;;98.80;40.75;;;;;;;2.07;100.00;97772.89;4039299;88;28531;-85
2021/12/10 13:57:01;;;;;;;94.17;39.98;;;;;;;1.81;100.00;97771.90;4037456;88;28612;-84
2021/12/10 14:03:02;;;;;;;93.12;37.38;;;;;;;1.61;100.00;97767.42;3915267;89;28517;-84
2021/12/10 14:09:36;;;;;;;87.25;37.20;;;;;;;1.66;100.00;97764.99;4026071;86;28514;-85
2021/12/10 14:15:49;;;;;;;89.45;37.83;;;;;;;1.61;100.00;97753.37;4029038;88;28512;-86
2021/12/10 14:21:48;;;;;;;92.20;38.23;;;;;;;1.45;100.00;97747.98;4043604;88;28476;-85
2021/12/10 14:28:15;;;;;;;87.97;37.33;;;;;;;1.19;100.00;97748.27;3984497;87;28573;-86
2021/12/10 14:34:23;;;;;;;82.40;34.25;;;;;;;1.06;100.00;97751.73;4036922;88;28480;-85
2021/12/10 14:40:32;;;;;;;83.75;35.83;;;;;;;0.85;100.00;97754.84;4043770;87;28476;-82
2021/12/10 14:46:53;;;;;;;88.78;36.63;;;;;;;0.72;100.00;97756.11;4048879;86;28539;-84
2021/12/10 14:52:55;;;;;;;90.38;38.58;;;;;;;0.64;100.00;97758.42;4039103;86;28545;-82
2021/12/10 14:59:12;;;;;;;99.37;39.27;;;;;;;0.60;100.00;97755.88;4031099;86;28546;-84
2021/12/10 15:05:14;;;;;;;103.80;40.28;;;;;;;0.57;100.00;97762.88;4044259;86;28515;-82
2021/12/10 15:11:39;;;;;;;92.15;36.00;;;;;;;0.66;100.00;97756.39;4053743;86;28499;-82
2021/12/10 15:17:41;;;;;;;84.25;35.90;;;;;;;0.56;100.00;97768.69;4062202;86;28543;-84
2021/12/10 15:24:05;;;;;;;94.03;38.38;;;;;;;0.47;100.00;97778.62;4044341;86;28583;-86
2021/12/10 15:30:16;;;;;;;95.70;37.53;;;;;;;0.25;100.00;97782.66;4021155;86;28542;-84
2021/12/10 15:36:22;;;;;;;90.62;37.73;;;;;;;0.03;100.00;97777.16;4052620;86;28523;-82
2021/12/10 15:42:28;;;;;;;82.37;34.98;;;;;;;0.04;100.00;97768.22;4051201;88;28519;-81
2021/12/10 15:48:31;;;;;;;;;;;;;;;-0.14;100.00;97765.59;4053872;88;28903;-82
2021/12/10 15:54:38;;;;;;;89.87;37.15;;;;;;;-0.16;100.00;97767.09;4045657;86;20212;-86
2021/12/10 16:00:40;;;;;;;82.12;35.78;;;;;;;-0.25;100.00;97760.84;4049267;86;28545;-86
2021/12/10 16:06:41;;;;;;;94.92;38.30;;;;;;;-0.37;100.00;97757.38;4057468;87;28930;-83
2021/12/10 16:12:48;;;;;;;95.17;38.02;;;;;;;-0.34;100.00;97766.75;4051687;88;28503;-83
2021/12/10 16:18:52;;;;;;;85.60;35.50;;;;;;;-0.54;100.00;97752.89;4036697;87;28482;-82
2021/12/10 16:25:02;;;;;;;98.37;38.95;;;;;;;-0.67;100.00;97765.50;3996808;88;28528;-82
2021/12/10 16:31:11;;;;;;;89.30;36.45;;;;;;;-0.83;100.00;97769.70;4077091;86;28494;-81
2021/12/10 16:37:15;;;;;;;95.17;37.70;;;;;;;-0.73;100.00;97766.25;4066265;86;28548;-82
2021/12/10 16:43:20;;;;;;;96.02;36.58;;;;;;;-0.79;100.00;97774.42;4002298;87;28510;-82
2021/12/10 16:49:26;;;;;;;88.33;36.23;;;;;;;-0.62;100.00;97768.89;4046550;88;28487;-82
2021/12/10 16:55:32;;;;;;;94.85;37.25;;;;;;;-0.67;100.00;97776.55;4053389;87;28469;-82
2021/12/10 17:01:36;;;;;;;;;;;;;;;-0.50;100.00;97773.96;4063337;86;28528;-82
2021/12/10 17:07:42;;;;;;;93.78;37.60;;;;;;;-0.22;100.00;97774.45;4015243;88;20519;-82
2021/12/10 17:13:52;;;;;;;87.00;35.20;;;;;;;-0.02;100.00;97769.31;4060358;88;28607;-82
2021/12/10 17:19:59;;;;;;;83.35;35.48;;;;;;;0.12;100.00;97773.34;4055653;86;28535;-81
2021/12/10 17:26:09;;;;;;;86.35;34.65;;;;;;;0.21;100.00;97776.64;4056766;86;28480;-82
2021/12/10 17:32:16;;;;;;;85.47;34.45;;;;;;;0.15;100.00;97776.12;4043061;88;28476;-82
2021/12/10 17:38:19;;;;;;;84.92;35.85;;;;;;;-0.01;100.00;97788.62;4041795;85;28482;-81
2021/12/10 17:44:21;;;;;;;80.67;31.15;;;;;;;0.11;100.00;97785.77;4050628;86;28545;-83
2021/12/10 17:50:31;;;;;;;76.35;30.85;;;;;;;0.13;100.00;97789.03;4042446;86;28526;-81
2021/12/10 17:56:34;;;;;;;80.07;30.48;;;;;;;0.13;100.00;97787.70;4054792;88;28522;-82
2021/12/10 18:02:37;;;;;;;77.40;30.57;;;;;;;0.18;100.00;97786.30;4049436;86;28496;-81
2021/12/10 18:08:39;;;;;;;73.85;28.65;;;;;;;0.17;100.00;97788.63;4053830;86;28478;-83
2021/12/10 18:14:55;;;;;;;67.67;26.60;;;;;;;0.11;100.00;97785.77;4052751;86;28456;-82
2021/12/10 18:21:07;;;;;;;77.42;28.50;;;;;;;0.15;100.00;97778.76;4049107;86;28564;-81
2021/12/10 18:27:09;;;;;;;67.53;27.07;;;;;;;0.11;100.00;97781.80;4056076;86;28476;-83
2021/12/10 18:33:11;;;;;;;74.00;27.30;;;;;;;0.18;100.00;97785.80;4038689;88;28489;-82
2021/12/10 18:39:24;;;;;;;77.32;29.57;;;;;;;0.14;100.00;97788.50;4054305;86;28531;-83
2021/12/10 18:45:45;;;;;;;69.05;27.22;;;;;;;0.13;100.00;97804.05;4046053;86;28510;-81
2021/12/10 18:51:52;;;;;;;66.82;27.35;;;;;;;0.22;100.00;97808.18;4048676;86;28492;-83
2021/12/10 18:57:59;;;;;;;67.90;26.55;;;;;;;0.30;100.00;97809.84;4048956;87;28510;-83
2021/12/10 19:04:10;;;;;;;67.87;28.10;;;;;;;0.34;100.00;97811.59;4055726;86;28553;-81
2021/12/10 19:10:25;;;;;;;71.75;30.25;;;;;;;0.22;100.00;97800.25;4059898;86;28522;-79
2021/12/10 19:16:32;;;;;;;74.92;30.80;;;;;;;0.13;100.00;97804.88;3996447;88;28522;-81
2021/12/10 19:22:37;;;;;;;84.22;31.80;;;;;;;0.21;100.00;97812.33;3995411;89;28529;-80
2021/12/10 19:28:47;;;;;;;82.78;33.05;;;;;;;0.22;100.00;97818.75;3995340;88;28571;-80
2021/12/10 19:34:57;;;;;;;87.33;35.33;;;;;;;0.04;100.00;97816.62;4064226;86;28515;-80
2021/12/10 19:41:04;;;;;;;91.60;35.13;;;;;;;-0.08;100.00;97826.89;4079008;84;28535;-80
2021/12/10 19:47:14;;;;;;;81.60;32.80;;;;;;;-0.18;100.00;97827.73;4056619;86;28482;-80
2021/12/10 19:53:21;;;;;;;76.00;30.32;;;;;;;0.05;100.00;97834.10;4065905;87;28496;-80
2021/12/10 19:59:31;;;;;;;74.82;30.37;;;;;;;-0.18;100.00;97839.62;4060132;86;28573;-79
2021/12/10 20:05:38;;;;;;;74.20;30.17;;;;;;;-0.03;100.00;97855.38;4059237;86;28483;-77
2021/12/10 20:11:51;;;;;;;75.57;30.80;;;;;;;-0.07;100.00;97843.58;4058232;86;28479;-80
2021/12/10 20:17:58;;;;;;;83.05;33.02;;;;;;;-0.36;100.00;97842.23;4063159;86;28475;-80
2021/12/10 20:24:05;;;;;;;81.30;31.37;;;;;;;-0.11;100.00;97840.98;4047600;88;28519;-80
2021/12/10 20:30:28;;;;;;;79.62;31.45;;;;;;;-0.34;100.00;97850.78;4064051;86;28467;-82
2021/12/10 20:36:45;;;;;;;84.40;32.50;;;;;;;-0.34;100.00;97863.98;3998393;86;28533;-85
2021/12/10 20:42:54;;;;;;;86.37;31.68;;;;;;;-0.15;100.00;97870.95;4064707;86;28542;-81
2021/12/10 20:49:07;;;;;;;80.85;30.23;;;;;;;-0.07;100.00;97881.37;4054258;87;28533;-81
2021/12/10 20:55:18;;;;;;;80.57;30.55;;;;;;;-0.34;100.00;97879.84;4062646;86;28538;-81
2021/12/10 21:01:31;;;;;;;77.15;29.75;;;;;;;-0.44;100.00;97885.94;4014926;86;28559;-78
2021/12/10 21:07:36;;;;;;;82.82;30.55;;;;;;;-0.40;100.00;97891.66;4018804;87;28494;-81
2021/12/10 21:13:39;;;;;;;82.15;30.70;;;;;;;-0.35;100.00;97888.77;4005032;88;28506;-86
2021/12/10 21:19:47;;;;;;;81.85;28.92;;;;;;;-0.44;100.00;97892.54;4006220;87;28551;-85
2021/12/10 21:25:57;;;;;;;83.92;30.95;;;;;;;-0.30;100.00;97892.16;4020081;88;28476;-84
2021/12/10 21:32:10;;;;;;;83.30;30.32;;;;;;;-0.17;100.00;97892.77;4012380;87;28528;-85
2021/12/10 21:38:20;;;;;;;75.92;28.07;;;;;;;-0.31;100.00;97894.50;4031995;86;28519;-85
2021/12/10 21:44:26;;;;;;;73.30;29.85;;;;;;;-0.12;100.00;97902.77;4011912;87;28494;-83
2021/12/10 21:50:40;;;;;;;72.75;27.90;;;;;;;-0.18;100.00;97918.39;4027007;88;28500;-83
2021/12/10 21:56:43;;;;;;;79.95;27.22;;;;;;;-0.24;100.00;97917.81;4027944;88;28471;-85
2021/12/10 22:02:49;;;;;;;83.37;29.37;;;;;;;-0.09;100.00;97913.78;4059071;86;28798;-84
2021/12/10 22:08:56;;;;;;;75.57;28.25;;;;;;;-0.04;100.00;97924.61;4109652;86;28514;-85
2021/12/10 22:15:15;;;;;;;73.28;28.70;;;;;;;-0.01;100.00;97926.03;4065503;88;28511;-84
2021/12/10 22:21:27;;;;;;;78.15;27.85;;;;;;;0.00;100.00;97918.45;4054746;87;28485;-84
2021/12/10 22:27:34;;;;;;;76.95;28.17;;;;;;;-0.13;100.00;97916.98;4065508;85;28503;-83
2021/12/10 22:33:37;;;;;;;79.40;28.42;;;;;;;0.09;100.00;97924.41;4045555;88;28488;-86
2021/12/10 22:39:50;;;;;;;78.97;28.87;;;;;;;-0.12;100.00;97919.45;4061543;87;28479;-85
2021/12/10 22:45:52;;;;;;;84.32;31.65;;;;;;;0.05;100.00;97920.00;4060294;87;28480;-86
2021/12/10 22:52:15;;;;;;;76.42;28.98;;;;;;;-0.30;100.00;97922.02;4058396;88;28545;-84
2021/12/10 22:58:25;;;;;;;79.55;28.90;;;;;;;-0.06;100.00;97921.31;4064368;87;28530;-85
2021/12/10 23:04:51;;;;;;;75.03;28.02;;;;;;;0.06;100.00;97926.92;4038926;87;28551;-83
2021/12/10 23:10:56;;;;;;;80.97;28.32;;;;;;;0.11;100.00;97935.59;4062025;87;28625;-83
2021/12/10 23:17:03;;;;;;;61.15;24.23;;;;;;;0.13;100.00;97932.25;4065670;88;28487;-83
2021/12/10 23:23:04;;;;;;;70.32;25.37;;;;;;;0.00;100.00;97946.20;4063317;88;28515;-82
2021/12/10 23:29:16;;;;;;;70.55;26.50;;;;;;;0.01;100.00;97945.67;4066851;87;28487;-82
2021/12/10 23:35:26;;;;;;;75.28;27.40;;;;;;;-0.05;100.00;97953.37;4071369;86;28480;-84
2021/12/10 23:41:37;;;;;;;69.97;26.57;;;;;;;-0.11;100.00;97958.08;4063018;87;28497;-82
2021/12/10 23:47:42;;;;;;;68.28;25.20;;;;;;;-0.24;100.00;97961.91;4051235;87;28515;-83
2021/12/10 23:53:44;;;;;;;64.95;23.52;;;;;;;-0.06;100.00;97976.01;4068304;88;28487;-83
2021/12/10 23:59:46;;;;;;;68.62;25.20;;;;;;;-0.33;100.00;97981.01;4123241;85;28501;-82
